createdAt,value
2017-09-23T00:00:34.292Z,20.43
2017-09-23T00:03:00.596Z,19.23
2017-09-23T00:05:26.889Z,18.27
2017-09-23T00:07:53.299Z,18.00
2017-09-23T00:10:19.629Z,18.70
2017-09-23T00:12:45.978Z,20.13
2017-09-23T00:15:12.324Z,18.93
2017-09-23T00:17:38.624Z,18.70
2017-09-23T00:20:04.915Z,21.03
2017-09-23T00:22:31.207Z,18.40
2017-09-23T00:24:57.521Z,20.40
2017-09-23T00:27:23.816Z,21.00
2017-09-23T00:29:50.839Z,19.03
2017-09-23T00:32:17.148Z,19.80
2017-09-23T00:34:43.458Z,20.30
2017-09-23T00:37:09.799Z,19.10
2017-09-23T00:39:36.179Z,17.87
2017-09-23T00:42:03.377Z,18.20
2017-09-23T00:44:29.702Z,20.10
2017-09-23T00:46:56.028Z,19.07
2017-09-23T00:49:22.907Z,18.00
2017-09-23T00:51:49.223Z,17.07
2017-09-23T00:54:15.582Z,17.27
2017-09-23T00:56:41.905Z,19.70
2017-09-23T00:59:08.254Z,18.83
2017-09-23T01:01:35.315Z,18.83
2017-09-23T01:04:02.408Z,18.13
2017-09-23T01:06:28.809Z,21.23
2017-09-23T01:08:55.121Z,19.03
2017-09-23T01:11:22.188Z,19.20
2017-09-23T01:13:48.493Z,17.07
2017-09-23T01:16:15.564Z,17.77
2017-09-23T01:18:41.852Z,19.60
2017-09-23T01:21:09.740Z,17.20
2017-09-23T01:23:36.872Z,18.70
2017-09-23T01:26:03.323Z,17.47
2017-09-23T01:28:30.518Z,17.17
2017-09-23T01:30:56.805Z,17.20
2017-09-23T01:33:23.835Z,17.87
2017-09-23T01:35:50.104Z,16.30
2017-09-23T01:38:16.399Z,16.50
2017-09-23T01:40:43.435Z,16.27
2017-09-23T01:43:09.773Z,15.40
2017-09-23T01:45:36.856Z,16.20
2017-09-23T01:48:03.156Z,16.10
2017-09-23T01:50:30.200Z,16.30
2017-09-23T01:52:56.796Z,15.47
2017-09-23T01:55:23.095Z,14.97
2017-09-23T01:57:49.452Z,15.40
2017-09-23T02:00:15.761Z,15.07
2017-09-23T02:02:42.069Z,14.53
2017-09-23T02:05:09.124Z,14.80
2017-09-23T02:07:35.429Z,16.60
2017-09-23T02:10:01.714Z,15.07
2017-09-23T02:12:28.008Z,14.80
2017-09-23T02:14:55.208Z,15.47
2017-09-23T02:17:21.528Z,15.77
2017-09-23T02:19:47.850Z,15.20
2017-09-23T02:22:14.176Z,16.53
2017-09-23T02:24:40.488Z,17.20
2017-09-23T02:27:06.800Z,15.50
2017-09-23T02:29:33.892Z,15.03
2017-09-23T02:32:00.186Z,17.30
2017-09-23T02:34:26.509Z,15.47
2017-09-23T02:36:53.642Z,16.10
2017-09-23T02:39:19.972Z,14.60
2017-09-23T02:41:46.279Z,16.47
2017-09-23T02:44:12.543Z,16.27
2017-09-23T02:46:39.597Z,15.63
2017-09-23T02:49:06.768Z,15.37
2017-09-23T02:51:33.120Z,15.10
2017-09-23T02:53:59.409Z,15.47
2017-09-23T02:56:26.614Z,16.50
2017-09-23T02:58:52.954Z,14.67
2017-09-23T03:01:19.280Z,16.40
2017-09-23T03:03:45.564Z,16.90
2017-09-23T03:06:11.874Z,16.53
2017-09-23T03:08:38.876Z,16.83
2017-09-23T03:11:05.330Z,15.07
2017-09-23T03:13:31.816Z,15.47
2017-09-23T03:15:58.106Z,15.33
2017-09-23T03:18:25.220Z,15.57
2017-09-23T03:20:51.520Z,15.93
2017-09-23T03:23:18.160Z,16.20
2017-09-23T03:25:44.472Z,17.53
2017-09-23T03:28:11.644Z,15.00
2017-09-23T03:30:37.965Z,14.80
2017-09-23T03:33:04.281Z,16.60
2017-09-23T03:35:31.331Z,17.40
2017-09-23T03:37:58.364Z,15.70
2017-09-23T03:40:25.427Z,17.10
2017-09-23T03:42:52.495Z,16.37
2017-09-23T03:45:18.815Z,15.37
2017-09-23T03:47:45.111Z,15.47
2017-09-23T03:50:11.396Z,17.10
2017-09-23T03:52:37.716Z,15.93
2017-09-23T03:55:04.028Z,16.47
2017-09-23T03:57:30.449Z,17.33
2017-09-23T03:59:57.545Z,16.27
2017-09-23T04:02:23.852Z,16.77
2017-09-23T04:04:50.127Z,17.30
2017-09-23T04:07:16.484Z,16.47
2017-09-23T04:09:43.522Z,16.10
2017-09-23T04:12:09.831Z,16.70
2017-09-23T04:14:36.175Z,16.70
2017-09-23T04:17:02.448Z,17.10
2017-09-23T04:19:28.781Z,15.70
2017-09-23T04:21:55.109Z,16.00
2017-09-23T04:24:21.560Z,16.63
2017-09-23T04:26:47.856Z,18.40
2017-09-23T04:29:14.948Z,16.33
2017-09-23T04:31:41.342Z,18.27
2017-09-23T04:34:07.609Z,16.30
2017-09-23T04:36:33.947Z,16.70
2017-09-23T04:39:00.239Z,16.20
2017-09-23T04:41:26.538Z,16.33
2017-09-23T04:43:53.557Z,17.33
2017-09-23T04:46:19.874Z,16.20
2017-09-23T04:48:46.160Z,16.60
2017-09-23T04:51:13.464Z,16.53
2017-09-23T04:53:39.753Z,15.80
2017-09-23T04:56:06.060Z,17.40
2017-09-23T04:58:33.172Z,16.13
2017-09-23T05:00:59.539Z,16.40
2017-09-23T05:03:26.615Z,17.30
2017-09-23T05:05:52.900Z,16.63
2017-09-23T05:08:19.219Z,16.20
2017-09-23T05:10:45.692Z,17.80
2017-09-23T05:13:12.016Z,16.70
2017-09-23T05:15:39.136Z,17.73
2017-09-23T05:18:05.510Z,16.97
2017-09-23T05:20:31.815Z,16.20
2017-09-23T05:22:58.184Z,17.07
2017-09-23T05:25:24.477Z,18.17
2017-09-23T05:27:51.531Z,17.37
2017-09-23T05:30:18.604Z,17.43
2017-09-23T05:32:44.905Z,18.17
2017-09-23T05:35:11.987Z,18.13
2017-09-23T05:37:38.312Z,18.60
2017-09-23T05:40:04.669Z,18.57
2017-09-23T05:42:31.022Z,16.80
2017-09-23T05:44:57.332Z,17.40
2017-09-23T05:47:23.688Z,16.17
2017-09-23T05:49:49.989Z,17.23
2017-09-23T05:52:16.372Z,17.13
2017-09-23T05:54:42.745Z,16.40
2017-09-23T05:57:09.053Z,16.23
2017-09-23T05:59:35.373Z,16.57
2017-09-23T06:02:02.469Z,16.10
2017-09-23T06:04:28.857Z,15.57
2017-09-23T06:06:55.215Z,15.03
2017-09-23T06:09:21.520Z,14.93
2017-09-23T06:11:47.941Z,14.10
2017-09-23T06:14:14.968Z,13.87
2017-09-23T06:16:41.308Z,14.90
2017-09-23T06:19:08.413Z,13.80
2017-09-23T06:24:04.556Z,13.00
2017-09-23T06:26:30.893Z,13.50
2017-09-23T06:28:57.292Z,12.10
2017-09-23T06:31:23.626Z,13.77
2017-09-23T06:33:49.953Z,14.00
2017-09-23T06:36:16.281Z,12.87
2017-09-23T06:38:42.681Z,11.60
2017-09-23T06:41:09.776Z,13.40
2017-09-23T06:43:36.103Z,12.20
2017-09-23T06:46:03.000Z,13.20
2017-09-23T06:48:30.075Z,13.57
2017-09-23T06:50:56.431Z,13.83
2017-09-23T06:53:22.740Z,13.53
2017-09-23T06:55:49.136Z,13.10
2017-09-23T06:58:15.877Z,13.20
2017-09-23T07:00:42.924Z,13.17
2017-09-23T07:03:09.232Z,14.43
2017-09-23T07:05:35.556Z,12.70
2017-09-23T07:08:01.879Z,12.80
2017-09-23T07:10:28.173Z,12.30
2017-09-23T07:12:54.494Z,13.07
2017-09-23T07:15:21.540Z,11.83
2017-09-23T07:17:48.616Z,11.60
2017-09-23T07:20:14.908Z,10.20
2017-09-23T07:22:41.985Z,10.13
2017-09-23T07:25:08.294Z,9.73
2017-09-23T07:27:35.363Z,8.40
2017-09-23T07:30:01.664Z,9.07
2017-09-23T07:32:28.724Z,8.90
2017-09-23T07:34:55.827Z,8.40
2017-09-23T07:37:22.163Z,9.33
2017-09-23T07:39:48.446Z,10.33
2017-09-23T07:42:14.757Z,9.20
2017-09-23T07:44:41.834Z,9.50
2017-09-23T07:47:08.169Z,9.27
2017-09-23T07:49:34.484Z,9.00
2017-09-23T07:52:00.824Z,8.43
2017-09-23T07:54:27.209Z,9.80
2017-09-23T07:56:54.250Z,9.87
2017-09-23T07:59:20.581Z,10.30
2017-09-23T08:01:46.958Z,10.23
2017-09-23T08:04:13.296Z,9.70
2017-09-23T08:06:39.680Z,8.47
2017-09-23T08:09:06.004Z,9.60
2017-09-23T08:11:32.547Z,9.30
2017-09-23T08:13:59.636Z,9.13
2017-09-23T08:16:25.968Z,9.70
2017-09-23T08:18:52.436Z,9.67
2017-09-23T08:21:18.730Z,9.73
2017-09-23T08:23:45.042Z,9.33
2017-09-23T08:26:12.181Z,10.07
2017-09-23T08:28:38.488Z,10.53
2017-09-23T08:31:05.574Z,10.90
2017-09-23T08:33:31.877Z,10.40
2017-09-23T08:35:58.171Z,10.00
2017-09-23T08:38:24.504Z,10.33
2017-09-23T08:40:50.811Z,10.63
2017-09-23T08:43:17.132Z,11.57
2017-09-23T08:45:43.546Z,9.57
2017-09-23T08:48:10.612Z,12.07
2017-09-23T08:50:36.912Z,11.40
2017-09-23T08:53:03.980Z,11.13
2017-09-23T08:55:30.308Z,11.27
2017-09-23T08:57:56.600Z,11.70
2017-09-23T09:00:22.930Z,11.43
2017-09-23T09:02:49.252Z,10.77
2017-09-23T09:05:15.574Z,11.27
2017-09-23T09:07:41.936Z,11.07
2017-09-23T09:10:08.209Z,10.53
2017-09-23T09:12:34.531Z,12.50
2017-09-23T09:15:00.818Z,12.67
2017-09-23T09:17:27.892Z,11.90
2017-09-23T09:19:55.060Z,12.97
2017-09-23T09:22:21.652Z,14.60
2017-09-23T09:24:47.988Z,13.80
2017-09-23T09:27:15.085Z,14.73
2017-09-23T09:29:41.402Z,16.33
2017-09-23T09:32:07.816Z,15.50
2017-09-23T09:34:34.948Z,17.37
2017-09-23T09:37:01.972Z,17.47
2017-09-23T09:39:28.307Z,17.67
2017-09-23T09:41:54.627Z,17.10
2017-09-23T09:44:20.943Z,18.87
2017-09-23T09:46:47.227Z,18.10
2017-09-23T09:49:14.317Z,19.07
2017-09-23T09:51:40.600Z,21.03
2017-09-23T09:54:07.672Z,20.90
2017-09-23T09:56:34.038Z,21.07
2017-09-23T09:59:00.356Z,21.27
2017-09-23T10:01:26.780Z,21.17
2017-09-23T10:03:53.112Z,22.70
2017-09-23T10:06:19.504Z,23.37
2017-09-23T10:08:46.583Z,22.00
2017-09-23T10:11:12.917Z,24.50
2017-09-23T10:13:39.365Z,24.00
2017-09-23T10:16:05.757Z,23.50
2017-09-23T10:18:32.796Z,23.03
2017-09-23T10:20:59.832Z,23.70
2017-09-23T10:23:26.909Z,23.77
2017-09-23T10:25:53.249Z,21.43
2017-09-23T10:28:19.541Z,22.70
2017-09-23T10:30:45.879Z,22.87
2017-09-23T10:33:12.982Z,23.33
2017-09-23T10:35:39.312Z,21.77
2017-09-23T10:38:05.683Z,21.03
2017-09-23T10:40:32.081Z,21.20
2017-09-23T10:42:58.453Z,22.20
2017-09-23T10:45:25.114Z,20.37
2017-09-23T10:47:51.460Z,18.43
2017-09-23T10:50:17.773Z,19.77
2017-09-23T10:52:44.128Z,20.10
2017-09-23T10:55:10.418Z,21.97
2017-09-23T10:57:37.722Z,20.40
2017-09-23T11:00:04.059Z,19.53
2017-09-23T11:02:30.386Z,20.70
2017-09-23T11:05:03.693Z,18.53
2017-09-23T11:07:29.992Z,20.37
2017-09-23T11:09:56.363Z,18.07
2017-09-23T11:12:22.676Z,18.40
2017-09-23T11:14:49.050Z,17.13
2017-09-23T11:17:16.125Z,16.63
2017-09-23T11:19:44.694Z,17.90
2017-09-23T11:22:11.088Z,16.90
2017-09-23T11:24:37.526Z,16.80
2017-09-23T11:27:03.849Z,19.10
2017-09-23T11:29:30.204Z,18.47
2017-09-23T11:31:57.505Z,19.00
2017-09-23T11:34:23.827Z,18.60
2017-09-23T11:36:50.164Z,18.80
2017-09-23T11:39:16.537Z,16.50
2017-09-23T11:41:43.086Z,18.37
2017-09-23T11:44:10.135Z,18.27
2017-09-23T11:46:37.357Z,21.33
2017-09-23T11:49:03.920Z,18.53
2017-09-23T11:51:31.097Z,18.00
2017-09-23T11:53:57.426Z,18.30
2017-09-23T11:56:23.780Z,17.37
2017-09-23T11:58:50.127Z,18.17
2017-09-23T12:01:17.109Z,17.20
2017-09-23T12:03:43.490Z,18.00
2017-09-23T12:06:09.817Z,17.17
2017-09-23T12:08:36.139Z,16.10
2017-09-23T12:11:02.499Z,16.20
2017-09-23T12:13:28.874Z,15.90
2017-09-23T12:15:55.200Z,16.70
2017-09-23T12:18:22.262Z,13.77
2017-09-23T12:20:48.607Z,16.80
2017-09-23T12:23:14.899Z,15.83
2017-09-23T12:25:41.963Z,15.40
2017-09-23T12:28:08.257Z,13.60
2017-09-23T12:30:34.596Z,14.07
2017-09-23T12:33:00.909Z,13.17
2017-09-23T12:35:27.268Z,15.40
2017-09-23T12:37:53.680Z,14.83
2017-09-23T12:40:19.961Z,13.10
2017-09-23T12:42:46.262Z,14.20
2017-09-23T12:45:13.408Z,12.80
2017-09-23T12:47:40.470Z,15.00
2017-09-23T12:50:07.128Z,15.17
2017-09-23T12:52:33.451Z,14.87
2017-09-23T12:54:59.799Z,14.80
2017-09-23T12:57:26.149Z,13.50
2017-09-23T12:59:52.669Z,13.57
2017-09-23T13:02:19.059Z,13.40
2017-09-23T13:04:46.146Z,14.10
2017-09-23T13:07:12.479Z,13.83
2017-09-23T13:09:39.287Z,13.50
2017-09-23T13:12:05.688Z,14.47
2017-09-23T13:14:31.993Z,13.93
2017-09-23T13:16:58.353Z,13.70
2017-09-23T13:19:24.648Z,13.67
2017-09-23T13:21:51.057Z,14.10
2017-09-23T13:24:17.583Z,13.23
2017-09-23T13:26:43.899Z,12.27
2017-09-23T13:29:11.017Z,12.97
2017-09-23T13:31:37.405Z,12.87
2017-09-23T13:34:03.720Z,13.23
2017-09-23T13:36:32.114Z,11.80
2017-09-23T13:38:58.629Z,10.87
2017-09-23T13:41:24.912Z,11.57
2017-09-23T13:43:51.850Z,10.50
2017-09-23T13:46:18.162Z,11.17
2017-09-23T13:48:44.488Z,10.60
2017-09-23T13:51:10.784Z,9.30
2017-09-23T13:53:37.889Z,9.70
2017-09-23T13:56:04.222Z,9.70
2017-09-23T13:58:30.535Z,9.60
2017-09-23T14:00:56.866Z,8.03
2017-09-23T14:03:23.209Z,9.10
2017-09-23T14:05:49.524Z,11.10
2017-09-23T14:08:15.811Z,11.20
2017-09-23T14:10:42.948Z,11.17
2017-09-23T14:13:09.310Z,11.40
2017-09-23T14:15:35.623Z,11.00
2017-09-23T14:18:02.678Z,10.80
2017-09-23T14:20:29.704Z,8.67
2017-09-23T14:22:56.061Z,11.60
2017-09-23T14:25:22.389Z,10.13
2017-09-23T14:27:48.693Z,10.97
2017-09-23T14:30:15.025Z,10.77
2017-09-23T14:32:41.306Z,11.33
2017-09-23T14:35:07.649Z,10.17
2017-09-23T14:37:33.947Z,12.30
2017-09-23T14:40:00.237Z,9.97
2017-09-23T14:42:26.561Z,10.23
2017-09-23T14:44:53.612Z,9.00
2017-09-23T14:47:19.990Z,9.00
2017-09-23T14:49:46.276Z,9.20
2017-09-23T14:52:12.605Z,8.77
2017-09-23T14:54:38.921Z,8.17
2017-09-23T14:57:05.247Z,10.10
2017-09-23T14:59:31.756Z,11.13
2017-09-23T15:01:59.136Z,9.93
2017-09-23T15:04:25.710Z,12.07
2017-09-23T15:06:54.359Z,13.50
2017-09-23T15:09:21.459Z,13.17
2017-09-23T15:11:47.760Z,12.70
2017-09-23T15:14:14.880Z,13.10
2017-09-23T15:16:41.292Z,14.93
2017-09-23T15:19:07.633Z,12.80
2017-09-23T15:21:33.953Z,14.23
2017-09-23T15:24:00.660Z,13.23
2017-09-23T15:26:27.856Z,12.80
2017-09-23T15:28:55.026Z,12.43
2017-09-23T15:31:21.371Z,12.80
2017-09-23T15:33:48.426Z,12.20
2017-09-23T15:36:15.550Z,12.10
2017-09-23T15:38:42.184Z,13.13
2017-09-23T15:41:08.619Z,11.37
2017-09-23T15:43:35.057Z,13.37
2017-09-23T15:46:02.104Z,12.27
2017-09-23T15:48:29.913Z,13.13
2017-09-23T15:50:56.232Z,14.07
2017-09-23T15:53:23.289Z,12.90
2017-09-23T15:55:49.632Z,14.07
2017-09-23T15:58:16.032Z,13.07
2017-09-23T16:00:43.132Z,12.27
2017-09-23T16:03:09.480Z,14.50
2017-09-23T16:05:35.823Z,14.60
2017-09-23T16:08:02.873Z,13.70
2017-09-23T16:10:29.174Z,15.10
2017-09-23T16:12:55.480Z,15.60
2017-09-23T16:15:21.817Z,15.57
2017-09-23T16:17:53.684Z,14.80
2017-09-23T16:20:20.789Z,14.33
2017-09-23T16:22:47.859Z,14.80
2017-09-23T16:25:14.157Z,15.17
2017-09-23T16:27:40.480Z,15.10
2017-09-23T16:30:06.821Z,15.87
2017-09-23T16:32:33.192Z,16.00
2017-09-23T16:34:59.505Z,16.00
2017-09-23T16:37:25.854Z,16.17
2017-09-23T16:39:52.245Z,16.10
2017-09-23T16:42:19.364Z,15.50
2017-09-23T16:44:48.272Z,14.80
2017-09-23T16:47:14.685Z,18.13
2017-09-23T16:49:41.078Z,15.33
2017-09-23T16:52:07.425Z,15.93
2017-09-23T16:54:33.909Z,17.70
2017-09-23T16:57:01.001Z,16.37
2017-09-23T16:59:28.161Z,17.37
2017-09-23T17:01:56.196Z,16.00
2017-09-23T17:04:23.249Z,15.53
2017-09-23T17:06:50.469Z,15.93
2017-09-23T17:09:17.577Z,16.57
2017-09-23T17:11:43.914Z,17.00
2017-09-23T17:14:10.224Z,16.40
2017-09-23T17:16:36.547Z,18.17
2017-09-23T17:19:02.951Z,19.67
2017-09-23T17:21:30.032Z,19.67
2017-09-23T17:23:56.371Z,17.53
2017-09-23T17:26:22.669Z,18.47
2017-09-23T17:28:49.711Z,17.77
2017-09-23T17:31:16.734Z,17.07
2017-09-23T17:33:43.044Z,17.30
2017-09-23T17:36:09.377Z,17.67
2017-09-23T17:38:35.705Z,16.33
2017-09-23T17:41:02.034Z,18.33
2017-09-23T17:43:28.616Z,17.63
2017-09-23T17:45:55.711Z,17.50
2017-09-23T17:48:22.021Z,17.40
2017-09-23T17:50:48.322Z,16.47
2017-09-23T17:53:15.470Z,16.97
2017-09-23T17:55:42.514Z,17.20
2017-09-23T17:58:15.953Z,17.70
2017-09-23T18:00:42.506Z,18.00
2017-09-23T18:03:08.881Z,18.23
2017-09-23T18:05:35.928Z,18.77
2017-09-23T18:08:02.303Z,18.27
2017-09-23T18:10:29.068Z,18.27
2017-09-23T18:12:56.840Z,18.57
2017-09-23T18:15:23.487Z,22.90
2017-09-23T18:17:49.801Z,21.83
2017-09-23T18:20:16.142Z,20.53
2017-09-23T18:22:48.467Z,18.57
2017-09-23T18:25:14.840Z,19.93
2017-09-23T18:27:41.114Z,18.80
2017-09-23T18:30:07.458Z,18.67
2017-09-23T18:32:33.795Z,17.30
2017-09-23T18:35:00.156Z,16.37
2017-09-23T18:37:26.488Z,17.70
2017-09-23T18:39:52.804Z,17.97
2017-09-23T18:42:19.154Z,17.43
2017-09-23T18:44:52.472Z,18.23
2017-09-23T18:47:19.552Z,16.50
2017-09-23T18:49:45.881Z,18.57
2017-09-23T18:52:12.201Z,17.60
2017-09-23T18:54:38.531Z,19.43
2017-09-23T18:57:04.901Z,18.97
2017-09-23T18:59:31.277Z,18.43
2017-09-23T19:01:58.325Z,17.40
2017-09-23T19:04:25.447Z,18.43
2017-09-23T19:06:51.769Z,17.73
2017-09-23T19:09:18.061Z,19.60
2017-09-23T19:11:44.402Z,18.93
2017-09-23T19:14:10.792Z,19.83
2017-09-23T19:16:38.004Z,17.63
2017-09-23T19:19:04.356Z,19.40
2017-09-23T19:21:30.764Z,18.20
2017-09-23T19:23:57.110Z,17.40
2017-09-23T19:26:23.497Z,19.83
2017-09-23T19:28:49.818Z,19.40
2017-09-23T19:31:16.165Z,19.87
2017-09-23T19:33:42.664Z,18.73
2017-09-23T19:36:09.728Z,20.03
2017-09-23T19:38:36.825Z,20.00
2017-09-23T19:41:03.231Z,20.43
2017-09-23T19:43:29.664Z,22.00
2017-09-23T19:45:56.205Z,22.20
2017-09-23T19:48:22.522Z,24.70
2017-09-23T19:50:48.893Z,23.47
2017-09-23T19:53:15.229Z,24.87
2017-09-23T19:55:41.542Z,25.33
2017-09-23T19:58:07.844Z,24.30
2017-09-23T20:00:34.124Z,25.87
2017-09-23T20:03:00.495Z,27.70
2017-09-23T20:05:26.916Z,25.63
2017-09-23T20:07:54.330Z,28.30
2017-09-23T20:10:20.668Z,26.87
2017-09-23T20:12:52.370Z,29.83
2017-09-23T20:15:18.980Z,24.77
2017-09-23T20:17:45.314Z,27.93
2017-09-23T20:20:12.409Z,29.30
2017-09-23T20:22:38.949Z,27.23
2017-09-23T20:25:05.294Z,29.63
2017-09-23T20:27:31.641Z,28.43
2017-09-23T20:29:57.982Z,28.13
2017-09-23T20:32:25.227Z,29.47
2017-09-23T20:34:51.573Z,31.90
2017-09-23T20:37:18.790Z,29.63
2017-09-23T20:39:45.146Z,30.97
2017-09-23T20:42:11.556Z,30.20
2017-09-23T20:44:37.862Z,31.00
2017-09-23T20:47:04.194Z,32.70
2017-09-23T20:49:30.588Z,33.07
2017-09-23T20:51:57.646Z,32.33
2017-09-23T20:54:24.704Z,34.47
2017-09-23T20:56:51.136Z,33.57
2017-09-23T20:59:17.471Z,33.07
2017-09-23T21:01:43.808Z,30.40
2017-09-23T21:04:10.132Z,34.77
2017-09-23T21:06:36.523Z,35.47
2017-09-23T21:09:03.905Z,34.60
2017-09-23T21:11:30.227Z,33.27
2017-09-23T21:13:57.342Z,35.63
2017-09-23T21:16:23.826Z,35.63
2017-09-23T21:18:50.144Z,33.90
2017-09-23T21:21:17.225Z,36.40
2017-09-23T21:23:43.520Z,35.00
2017-09-23T21:26:10.560Z,37.40
2017-09-23T21:28:37.807Z,36.53
2017-09-23T21:31:04.855Z,36.50
2017-09-23T21:33:31.952Z,36.33
2017-09-23T21:35:58.264Z,35.43
2017-09-23T21:38:24.593Z,37.67
2017-09-23T21:40:51.040Z,39.60
2017-09-23T21:43:17.492Z,38.03
2017-09-23T21:45:43.847Z,36.30
2017-09-23T21:48:10.180Z,37.50
2017-09-23T21:50:37.312Z,36.60
2017-09-23T21:53:05.140Z,38.47
2017-09-23T21:55:31.461Z,39.43
2017-09-23T21:57:57.820Z,38.30
2017-09-23T22:00:24.207Z,35.90
2017-09-23T22:02:54.157Z,36.80
2017-09-23T22:05:20.440Z,36.80
2017-09-23T22:07:47.557Z,37.60
2017-09-23T22:10:13.957Z,40.23
2017-09-23T22:12:40.276Z,38.00
2017-09-23T22:15:06.603Z,38.53
2017-09-23T22:17:39.919Z,37.40
2017-09-23T22:20:06.249Z,39.97
2017-09-23T22:22:32.828Z,39.07
2017-09-23T22:24:59.910Z,37.97
2017-09-23T22:27:26.237Z,38.13
2017-09-23T22:29:53.479Z,38.43
2017-09-23T22:32:20.525Z,41.00
2017-09-23T22:34:47.573Z,41.40
2017-09-23T22:37:14.692Z,41.90
2017-09-23T22:39:41.016Z,41.87
2017-09-23T22:42:07.352Z,42.37
2017-09-23T22:44:33.682Z,40.73
2017-09-23T22:47:01.540Z,42.63
2017-09-23T22:49:27.865Z,40.70
2017-09-23T22:51:54.201Z,40.57
2017-09-23T22:54:20.581Z,41.37
2017-09-23T22:56:47.646Z,40.70
2017-09-23T22:59:13.966Z,39.33
2017-09-23T23:01:40.283Z,38.07
2017-09-23T23:04:07.332Z,41.10
2017-09-23T23:06:34.375Z,40.87
2017-09-23T23:09:01.477Z,41.60
2017-09-23T23:11:27.858Z,41.07
2017-09-23T23:13:54.936Z,40.60
2017-09-23T23:16:21.280Z,41.57
2017-09-23T23:18:47.944Z,41.20
2017-09-23T23:21:14.258Z,41.43
2017-09-23T23:23:40.553Z,40.20
2017-09-23T23:26:06.928Z,42.70
2017-09-23T23:28:33.232Z,44.03
2017-09-23T23:30:59.601Z,43.17
2017-09-23T23:33:25.895Z,43.10
2017-09-23T23:35:52.254Z,46.43
2017-09-23T23:38:25.543Z,43.60
2017-09-23T23:40:51.919Z,43.97
2017-09-23T23:43:18.222Z,45.67
2017-09-23T23:45:44.534Z,44.33
2017-09-23T23:48:10.844Z,44.90
2017-09-23T23:50:37.217Z,44.37
2017-09-23T23:53:04.289Z,44.47
2017-09-23T23:55:30.590Z,42.57
2017-09-23T23:57:56.991Z,47.70
